createdAt,value
2023-04-14T00:01:21.146Z,95278.91
2023-04-14T00:03:48.714Z,95288.34
2023-04-14T00:06:16.327Z,95292.56
2023-04-14T00:08:43.795Z,95290.97
2023-04-14T00:11:11.326Z,95288.75
2023-04-14T00:13:39.061Z,95282.63
2023-04-14T00:16:08.532Z,95281.31
2023-04-14T00:18:36.018Z,95284.75
2023-04-14T00:21:03.528Z,95290.25
2023-04-14T00:23:31.058Z,95277.34
2023-04-14T00:25:58.637Z,95274.19
2023-04-14T00:28:26.093Z,95283.38
2023-04-14T00:30:53.628Z,95279.91
2023-04-14T00:33:22.468Z,95279.81
2023-04-14T00:35:49.955Z,95281.47
2023-04-14T00:38:17.420Z,95286.78
2023-04-14T00:40:44.909Z,95286.78
2023-04-14T00:43:12.364Z,95286.41
2023-04-14T00:45:45.683Z,95283.28
2023-04-14T00:48:15.064Z,95285.56
2023-04-14T00:50:44.606Z,95296.34
2023-04-14T00:53:12.743Z,95285.47
2023-04-14T00:55:41.485Z,95281.97
2023-04-14T00:58:09.746Z,95290.16
2023-04-14T01:00:38.743Z,95284.75
2023-04-14T01:03:07.183Z,95281.66
2023-04-14T01:05:35.116Z,95285.50
2023-04-14T01:08:04.670Z,95288.50
2023-04-14T01:10:39.079Z,95282.41
2023-04-14T01:13:24.288Z,95283.41
2023-04-14T01:15:57.389Z,95281.09
2023-04-14T01:18:34.113Z,95266.09
2023-04-14T01:21:09.093Z,95275.09
2023-04-14T01:23:42.121Z,95269.34
2023-04-14T01:26:20.119Z,95276.94
2023-04-14T01:29:27.556Z,95276.94
2023-04-14T01:32:03.166Z,95278.50
2023-04-14T01:34:35.822Z,95275.00
2023-04-14T01:37:07.689Z,95278.31
2023-04-14T01:39:38.815Z,95285.81
2023-04-14T01:42:11.390Z,95279.56
2023-04-14T01:44:41.255Z,95284.50
2023-04-14T01:47:13.843Z,95293.56
2023-04-14T01:49:42.723Z,95289.81
2023-04-14T01:52:12.330Z,95294.59
2023-04-14T01:54:42.129Z,95292.44
2023-04-14T01:57:12.114Z,95296.72
2023-04-14T01:59:42.422Z,95298.59
2023-04-14T02:02:13.888Z,95299.88
2023-04-14T02:04:43.334Z,95297.03
2023-04-14T02:07:12.523Z,95300.47
2023-04-14T02:09:42.172Z,95313.19
2023-04-14T02:12:12.200Z,95320.44
2023-04-14T02:14:41.591Z,95321.53
2023-04-14T02:17:12.508Z,95328.13
2023-04-14T02:19:42.010Z,95334.53
2023-04-14T02:22:09.528Z,95337.00
2023-04-14T02:24:37.076Z,95340.75
2023-04-14T02:27:09.844Z,95339.53
2023-04-14T02:29:40.613Z,95342.97
2023-04-14T02:32:13.338Z,95336.66
2023-04-14T02:34:53.298Z,95331.00
2023-04-14T02:37:25.082Z,95323.44
2023-04-14T02:39:59.791Z,95324.19
2023-04-14T02:42:29.641Z,95317.94
2023-04-14T02:45:01.746Z,95320.69
2023-04-14T02:47:35.910Z,95318.59
2023-04-14T02:50:07.678Z,95315.59
2023-04-14T02:52:36.213Z,95316.38
2023-04-14T02:55:05.160Z,95322.63
2023-04-14T02:57:34.149Z,95308.22
2023-04-14T03:00:03.587Z,95320.16
2023-04-14T03:02:33.421Z,95325.59
2023-04-14T03:05:01.782Z,95322.75
2023-04-14T03:07:30.299Z,95320.63
2023-04-14T03:09:59.065Z,95326.09
2023-04-14T03:12:28.433Z,95330.84
2023-04-14T03:14:56.691Z,95333.03
2023-04-14T03:17:24.828Z,95334.16
2023-04-14T03:19:55.990Z,95322.72
2023-04-14T03:22:27.012Z,95334.88
2023-04-14T03:24:58.135Z,95325.59
2023-04-14T03:27:27.930Z,95332.19
2023-04-14T03:29:59.222Z,95327.44
2023-04-14T03:32:30.294Z,95323.94
2023-04-14T03:35:01.343Z,95316.66
2023-04-14T03:37:29.963Z,95308.75
2023-04-14T03:40:00.520Z,95307.69
2023-04-14T03:42:30.169Z,95304.25
2023-04-14T03:45:00.432Z,95306.81
2023-04-14T03:47:31.503Z,95292.97
2023-04-14T03:50:01.731Z,95298.69
2023-04-14T03:52:32.168Z,95291.13
2023-04-14T03:55:06.527Z,95293.59
2023-04-14T03:57:37.071Z,95294.47
2023-04-14T04:00:08.495Z,95295.69
2023-04-14T04:02:37.411Z,95289.66
2023-04-14T04:05:08.449Z,95287.44
2023-04-14T04:07:36.872Z,95289.19
2023-04-14T04:10:06.149Z,95284.97
2023-04-14T04:12:34.186Z,95290.25
2023-04-14T04:15:02.278Z,95296.09
2023-04-14T04:17:33.493Z,95294.72
2023-04-14T04:20:03.146Z,95283.19
2023-04-14T04:22:35.996Z,95284.13
2023-04-14T04:25:04.101Z,95278.63
2023-04-14T04:27:31.842Z,95269.69
2023-04-14T04:29:59.608Z,95277.97
2023-04-14T04:32:28.090Z,95277.84
2023-04-14T04:34:56.648Z,95287.63
2023-04-14T04:37:28.631Z,95291.56
2023-04-14T04:39:58.970Z,95295.03
2023-04-14T04:42:26.521Z,95297.84
2023-04-14T04:44:53.996Z,95309.41
2023-04-14T04:47:21.540Z,95303.81
2023-04-14T04:49:49.054Z,95305.09
2023-04-14T04:52:16.520Z,95316.31
2023-04-14T04:54:45.330Z,95311.91
2023-04-14T04:57:14.120Z,95313.97
2023-04-14T04:59:41.694Z,95309.72
2023-04-14T05:02:09.191Z,95310.25
2023-04-14T05:04:36.722Z,95309.69
2023-04-14T05:07:04.438Z,95308.34
2023-04-14T05:09:31.934Z,95309.00
2023-04-14T05:11:59.449Z,95312.44
2023-04-14T05:14:28.259Z,95310.56
2023-04-14T05:16:55.804Z,95316.28
2023-04-14T05:19:23.500Z,95316.78
2023-04-14T05:21:51.052Z,95307.16
2023-04-14T05:24:18.519Z,95309.91
2023-04-14T05:27:01.830Z,95313.16
2023-04-14T05:29:34.962Z,95300.69
2023-04-14T05:32:02.422Z,95304.59
2023-04-14T05:34:29.888Z,95313.47
2023-04-14T05:36:57.347Z,95316.84
2023-04-14T05:39:24.810Z,95310.44
2023-04-14T05:41:52.280Z,95304.03
2023-04-14T05:44:19.743Z,95310.16
2023-04-14T05:46:48.640Z,95313.75
2023-04-14T05:49:16.110Z,95317.19
2023-04-14T05:51:43.652Z,95326.88
2023-04-14T05:54:11.105Z,95330.03
2023-04-14T05:56:38.617Z,95324.75
2023-04-14T05:59:06.097Z,95324.91
2023-04-14T06:01:33.556Z,95320.41
2023-04-14T06:04:03.823Z,95331.72
2023-04-14T06:06:32.530Z,95327.78
2023-04-14T06:09:00.238Z,95329.97
2023-04-14T06:11:27.863Z,95325.38
2023-04-14T06:13:55.319Z,95324.97
2023-04-14T06:16:22.865Z,95320.97
2023-04-14T06:18:50.390Z,95322.44
2023-04-14T06:21:19.169Z,95322.59
2023-04-14T06:23:46.632Z,95331.31
2023-04-14T06:26:14.137Z,95333.78
2023-04-14T06:28:43.671Z,95337.53
2023-04-14T06:31:11.449Z,95331.84
2023-04-14T06:33:39.085Z,95327.13
2023-04-14T06:36:07.182Z,95319.25
2023-04-14T06:38:36.042Z,95318.50
2023-04-14T06:41:03.480Z,95327.72
2023-04-14T06:43:30.927Z,95328.00
2023-04-14T06:45:58.430Z,95324.88
2023-04-14T06:48:27.250Z,95321.59
2023-04-14T06:50:55.704Z,95312.63
2023-04-14T06:53:23.575Z,95315.81
2023-04-14T06:55:59.261Z,95312.63
2023-04-14T06:58:28.145Z,95318.34
2023-04-14T07:00:57.041Z,95311.81
2023-04-14T07:03:24.706Z,95316.13
2023-04-14T07:05:52.994Z,95316.59
2023-04-14T07:08:21.181Z,95318.16
2023-04-14T07:10:49.097Z,95314.16
2023-04-14T07:13:17.905Z,95306.66
2023-04-14T07:15:46.825Z,95302.38
2023-04-14T07:18:14.386Z,95298.38
2023-04-14T07:20:41.865Z,95299.88
2023-04-14T07:23:10.078Z,95300.34
2023-04-14T07:25:38.191Z,95299.22
2023-04-14T07:28:06.191Z,95299.47
2023-04-14T07:30:35.023Z,95291.75
2023-04-14T07:33:02.997Z,95294.72
2023-04-14T07:35:30.918Z,95299.53
2023-04-14T07:37:58.385Z,95294.38
2023-04-14T07:40:25.883Z,95288.69
2023-04-14T07:42:53.362Z,95288.38
2023-04-14T07:45:20.847Z,95278.78
2023-04-14T07:47:49.668Z,95282.41
2023-04-14T07:50:19.636Z,95286.56
2023-04-14T07:52:47.567Z,95283.44
2023-04-14T07:55:15.065Z,95287.09
2023-04-14T07:57:42.531Z,95280.22
2023-04-14T08:00:11.262Z,95288.13
2023-04-14T08:02:39.028Z,95286.47
2023-04-14T08:05:08.484Z,95290.44
2023-04-14T08:07:36.044Z,95282.22
2023-04-14T08:10:03.678Z,95280.25
2023-04-14T08:12:31.435Z,95278.44
2023-04-14T08:14:58.892Z,95281.38
2023-04-14T08:17:27.177Z,95271.19
2023-04-14T08:19:55.365Z,95278.94
2023-04-14T08:22:25.504Z,95279.28
2023-04-14T08:24:52.967Z,95288.50
2023-04-14T08:27:20.424Z,95293.13
2023-04-14T08:29:48.075Z,95296.59
2023-04-14T08:32:15.645Z,95305.34
2023-04-14T08:35:37.306Z,95305.31
2023-04-14T08:37:32.737Z,95310.28
2023-04-14T08:40:00.443Z,95314.53
2023-04-14T08:42:28.017Z,95309.09
2023-04-14T08:44:56.419Z,95302.31
2023-04-14T08:47:25.476Z,95302.31
2023-04-14T08:49:57.923Z,95306.63
2023-04-14T08:52:28.816Z,95301.47
2023-04-14T08:55:01.081Z,95294.22
2023-04-14T08:57:30.306Z,95293.75
2023-04-14T08:59:58.272Z,95289.81
2023-04-14T09:02:26.657Z,95293.41
2023-04-14T09:04:54.945Z,95300.03
2023-04-14T09:07:24.118Z,95320.97
2023-04-14T09:09:52.339Z,95311.56
2023-04-14T09:12:22.701Z,95320.16
2023-04-14T09:14:53.215Z,95315.38
2023-04-14T09:17:21.218Z,95311.50
2023-04-14T09:20:37.288Z,95310.25
2023-04-14T09:22:36.934Z,95309.41
2023-04-14T09:25:05.252Z,95313.56
2023-04-14T09:27:34.467Z,95316.03
2023-04-14T09:30:02.424Z,95322.47
2023-04-14T09:32:30.528Z,95319.16
2023-04-14T09:34:58.593Z,95328.09
2023-04-14T09:37:26.888Z,95320.81
2023-04-14T09:39:55.600Z,95324.94
2023-04-14T09:42:39.992Z,95317.19
2023-04-14T09:45:09.506Z,95321.47
2023-04-14T09:47:37.515Z,95315.88
2023-04-14T09:50:05.573Z,95318.19
2023-04-14T09:52:40.305Z,95306.13
2023-04-14T09:55:10.432Z,95286.00
2023-04-14T09:57:42.333Z,95280.53
2023-04-14T10:00:21.469Z,95280.59
2023-04-14T10:02:50.229Z,95284.09
2023-04-14T10:05:20.686Z,95293.63
2023-04-14T10:07:49.105Z,95290.44
2023-04-14T10:10:17.292Z,95275.63
2023-04-14T10:12:47.090Z,95277.34
2023-04-14T10:15:15.334Z,95275.97
2023-04-14T10:17:43.348Z,95265.88
2023-04-14T10:20:11.546Z,95284.31
2023-04-14T10:22:40.984Z,95295.63
2023-04-14T10:25:11.035Z,95301.16
2023-04-14T10:27:40.153Z,95292.91
2023-04-14T10:30:10.089Z,95305.78
2023-04-14T10:32:40.509Z,95303.22
2023-04-14T10:35:11.132Z,95292.91
2023-04-14T10:37:38.704Z,95293.44
2023-04-14T10:40:08.064Z,95294.75
2023-04-14T10:42:54.949Z,95285.94
2023-04-14T10:45:23.887Z,95285.19
2023-04-14T10:47:52.017Z,95289.16
2023-04-14T10:50:25.108Z,95290.56
2023-04-14T10:52:55.852Z,95292.38
2023-04-14T10:55:25.129Z,95280.81
2023-04-14T10:57:54.490Z,95270.69
2023-04-14T11:00:28.410Z,95273.28
2023-04-14T11:02:58.792Z,95281.75
2023-04-14T11:05:27.043Z,95280.13
2023-04-14T11:07:58.807Z,95274.56
2023-04-14T11:10:37.467Z,95258.97
2023-04-14T11:13:07.325Z,95257.00
2023-04-14T11:15:46.897Z,95262.66
2023-04-14T11:18:16.317Z,95252.63
2023-04-14T11:20:44.893Z,95245.03
2023-04-14T11:23:13.979Z,95246.19
2023-04-14T11:25:41.562Z,95248.81
2023-04-14T11:28:09.066Z,95244.81
2023-04-14T11:30:36.546Z,95239.94
2023-04-14T11:33:05.562Z,95222.47
2023-04-14T11:35:33.116Z,95220.53
2023-04-14T11:38:01.673Z,95220.00
2023-04-14T11:40:29.370Z,95222.34
2023-04-14T11:42:58.879Z,95223.19
2023-04-14T11:45:28.626Z,95228.59
2023-04-14T11:48:00.828Z,95224.84
2023-04-14T11:50:32.878Z,95222.13
2023-04-14T11:53:01.039Z,95223.16
2023-04-14T11:55:29.301Z,95232.00
2023-04-14T11:57:57.968Z,95231.84
2023-04-14T12:00:26.340Z,95224.94
2023-04-14T12:02:54.063Z,95215.41
2023-04-14T12:05:25.298Z,95220.31
2023-04-14T12:07:59.714Z,95212.28
2023-04-14T12:10:28.015Z,95218.03
2023-04-14T12:13:00.835Z,95208.63
2023-04-14T12:15:28.670Z,95206.63
2023-04-14T12:17:57.123Z,95193.16
2023-04-14T12:20:25.085Z,95198.47
2023-04-14T12:22:53.965Z,95202.97
2023-04-14T12:25:21.519Z,95205.91
2023-04-14T12:27:55.783Z,95192.28
2023-04-14T12:30:26.345Z,95198.31
2023-04-14T12:32:53.896Z,95194.59
2023-04-14T12:35:23.851Z,95194.09
2023-04-14T12:37:51.704Z,95192.53
2023-04-14T12:40:38.491Z,95181.22
2023-04-14T12:43:06.186Z,95190.03
2023-04-14T12:45:44.654Z,95177.22
2023-04-14T12:48:13.035Z,95184.81
2023-04-14T12:50:41.453Z,95182.97
2023-04-14T12:53:25.969Z,95178.19
2023-04-14T12:56:11.605Z,95171.41
2023-04-14T12:58:40.338Z,95167.94
2023-04-14T13:01:09.052Z,95162.06
2023-04-14T13:03:45.792Z,95173.78
2023-04-14T13:06:16.218Z,95166.50
2023-04-14T13:08:44.690Z,95168.41
2023-04-14T13:11:14.001Z,95162.72
2023-04-14T13:13:41.600Z,95174.66
2023-04-14T13:16:13.519Z,95164.19
2023-04-14T13:18:43.113Z,95167.38
2023-04-14T13:21:10.812Z,95153.88
2023-04-14T13:23:38.282Z,95149.34
2023-04-14T13:26:05.956Z,95153.88
2023-04-14T13:28:35.070Z,95160.63
2023-04-14T13:31:02.614Z,95155.28
2023-04-14T13:33:30.132Z,95152.69
2023-04-14T13:35:57.674Z,95156.25
2023-04-14T13:38:25.429Z,95148.13
2023-04-14T13:40:52.944Z,95151.59
2023-04-14T13:43:20.507Z,95142.94
2023-04-14T13:45:49.386Z,95146.03
2023-04-14T13:48:17.150Z,95141.94
2023-04-14T13:50:44.652Z,95145.03
2023-04-14T13:53:12.446Z,95137.72
2023-04-14T13:55:40.004Z,95142.19
2023-04-14T13:58:07.472Z,95143.22
2023-04-14T14:00:35.041Z,95148.31
2023-04-14T14:03:04.278Z,95142.56
2023-04-14T14:05:31.860Z,95140.06
2023-04-14T14:07:59.332Z,95146.84
2023-04-14T14:10:26.950Z,95146.56
2023-04-14T14:12:54.490Z,95149.94
2023-04-14T14:15:21.965Z,95151.94
2023-04-14T14:17:49.442Z,95159.19
2023-04-14T14:20:18.407Z,95167.56
2023-04-14T14:22:45.874Z,95171.53
2023-04-14T14:25:20.328Z,95171.91
2023-04-14T14:27:49.127Z,95176.16
2023-04-14T14:30:16.714Z,95180.41
2023-04-14T14:32:44.230Z,95171.13
2023-04-14T14:35:11.723Z,95173.00
2023-04-14T14:37:42.064Z,95173.47
2023-04-14T14:40:10.592Z,95169.38
2023-04-14T14:42:38.147Z,95174.72
2023-04-14T14:45:06.847Z,95176.91
2023-04-14T14:47:34.591Z,95167.19
2023-04-14T14:50:06.893Z,95174.66
2023-04-14T14:52:35.475Z,95169.22
2023-04-14T14:55:05.154Z,95167.13
2023-04-14T14:57:32.681Z,95161.47
2023-04-14T15:00:00.179Z,95162.44
2023-04-14T15:02:27.765Z,95163.03
2023-04-14T15:04:55.558Z,95169.59
2023-04-14T15:07:23.033Z,95171.06
2023-04-14T15:09:51.278Z,95159.72
2023-04-14T15:12:20.250Z,95162.88
2023-04-14T15:14:48.349Z,95166.81
2023-04-14T15:17:16.647Z,95161.19
2023-04-14T15:19:44.669Z,95168.69
2023-04-14T15:22:12.133Z,95166.63
2023-04-14T15:24:39.639Z,95164.56
2023-04-14T15:27:07.089Z,95175.75
2023-04-14T15:29:35.908Z,95166.63
2023-04-14T15:32:03.386Z,95167.06
2023-04-14T15:34:31.145Z,95175.44
2023-04-14T15:36:58.696Z,95167.53
2023-04-14T15:39:26.827Z,95170.16
2023-04-14T15:41:54.260Z,95164.72
2023-04-14T15:44:21.778Z,95172.34
2023-04-14T15:46:50.884Z,95165.63
2023-04-14T15:49:18.498Z,95165.63
2023-04-14T15:51:45.940Z,95163.22
2023-04-14T15:54:13.407Z,95156.59
2023-04-14T15:56:40.843Z,95156.31
2023-04-14T15:59:08.587Z,95147.69
2023-04-14T16:01:36.211Z,95153.50
2023-04-14T16:04:05.626Z,95158.69
2023-04-14T16:06:33.975Z,95164.69
2023-04-14T16:09:01.974Z,95167.03
2023-04-14T16:11:30.585Z,95172.94
2023-04-14T16:13:58.101Z,95170.44
2023-04-14T16:16:25.871Z,95173.25
2023-04-14T16:18:53.880Z,95165.03
2023-04-14T16:21:22.698Z,95162.03
2023-04-14T16:23:50.741Z,95169.66
2023-04-14T16:26:18.191Z,95163.84
2023-04-14T16:28:46.083Z,95163.16
2023-04-14T16:31:13.680Z,95165.47
2023-04-14T16:33:41.268Z,95158.84
2023-04-14T16:36:08.783Z,95163.22
2023-04-14T16:38:37.586Z,95160.03
2023-04-14T16:41:05.071Z,95160.44
2023-04-14T16:43:32.731Z,95162.09
2023-04-14T16:46:04.166Z,95166.03
2023-04-14T16:48:32.449Z,95153.88
2023-04-14T16:51:05.073Z,95150.13
2023-04-14T16:53:33.579Z,95144.03
2023-04-14T16:56:05.499Z,95152.31
2023-04-14T16:58:33.011Z,95151.03
2023-04-14T17:01:00.544Z,95150.31
2023-04-14T17:03:28.280Z,95141.13
2023-04-14T17:05:56.223Z,95157.91
2023-04-14T17:08:23.791Z,95154.63
2023-04-14T17:10:51.619Z,95155.09
2023-04-14T17:13:21.283Z,95163.84
2023-04-14T17:15:58.436Z,95164.47
2023-04-14T17:18:33.569Z,95158.81
2023-04-14T17:21:01.237Z,95167.91
2023-04-14T17:23:28.747Z,95164.34
2023-04-14T17:25:57.986Z,95156.16
2023-04-14T17:28:27.231Z,95161.28
2023-04-14T17:30:54.781Z,95161.09
2023-04-14T17:33:23.582Z,95164.09
2023-04-14T17:35:51.091Z,95155.38
2023-04-14T17:38:18.926Z,95165.75
2023-04-14T17:40:46.531Z,95161.78
2023-04-14T17:43:14.054Z,95166.44
2023-04-14T17:45:45.994Z,95166.44
2023-04-14T17:48:13.617Z,95171.50
2023-04-14T17:50:41.140Z,95173.91
2023-04-14T17:53:08.628Z,95169.28
2023-04-14T17:55:37.668Z,95178.19
2023-04-14T17:58:05.676Z,95174.25
2023-04-14T18:00:33.842Z,95175.28
2023-04-14T18:03:03.997Z,95170.97
2023-04-14T18:05:31.647Z,95176.31
2023-04-14T18:07:59.121Z,95172.69
2023-04-14T18:10:26.964Z,95171.03
2023-04-14T18:12:54.434Z,95178.69
2023-04-14T18:15:23.582Z,95179.69
2023-04-14T18:17:51.529Z,95175.38
2023-04-14T18:20:24.898Z,95185.44
2023-04-14T18:22:54.077Z,95189.88
2023-04-14T18:25:21.832Z,95192.69
2023-04-14T18:30:20.105Z,95186.56
2023-04-14T18:32:47.686Z,95194.81
2023-04-14T18:35:15.691Z,95193.00
2023-04-14T18:37:46.300Z,95186.78
2023-04-14T18:40:13.861Z,95197.81
2023-04-14T18:42:41.402Z,95195.16
2023-04-14T18:45:09.785Z,95198.16
2023-04-14T18:47:37.780Z,95200.78
2023-04-14T18:50:05.955Z,95204.75
2023-04-14T18:52:33.455Z,95208.03
2023-04-14T18:55:03.204Z,95204.09
2023-04-14T18:57:30.743Z,95202.47
2023-04-14T18:59:58.389Z,95207.09
2023-04-14T19:02:26.047Z,95205.56
2023-04-14T19:04:53.752Z,95208.88
2023-04-14T19:07:21.290Z,95202.47
2023-04-14T19:09:49.066Z,95207.03
2023-04-14T19:12:27.606Z,95198.31
2023-04-14T19:14:56.039Z,95205.72
2023-04-14T19:17:23.876Z,95205.38
2023-04-14T19:19:51.364Z,95208.53
2023-04-14T19:22:19.120Z,95208.03
2023-04-14T19:24:46.640Z,95211.94
2023-04-14T19:27:14.079Z,95210.28
2023-04-14T19:29:42.911Z,95211.34
2023-04-14T19:32:10.366Z,95209.22
2023-04-14T19:34:38.126Z,95209.84
2023-04-14T19:37:05.628Z,95209.22
2023-04-14T19:39:33.100Z,95207.38
2023-04-14T19:42:01.548Z,95212.19
2023-04-14T19:44:29.004Z,95201.69
2023-04-14T19:46:57.835Z,95205.03
2023-04-14T19:49:26.313Z,95204.75
2023-04-14T19:51:54.354Z,95208.19
2023-04-14T19:54:21.801Z,95212.63
2023-04-14T19:56:49.325Z,95211.00
2023-04-14T19:59:16.820Z,95203.06
2023-04-14T20:01:44.976Z,95208.50
2023-04-14T20:04:14.567Z,95207.38
2023-04-14T20:06:42.809Z,95200.78
2023-04-14T20:09:10.614Z,95203.75
2023-04-14T20:11:38.082Z,95206.72
2023-04-14T20:14:05.812Z,95212.94
2023-04-14T20:16:33.455Z,95205.31
2023-04-14T20:19:01.586Z,95207.03
2023-04-14T20:21:30.914Z,95207.38
2023-04-14T20:23:59.320Z,95204.59
2023-04-14T20:26:27.463Z,95199.16
2023-04-14T20:28:56.044Z,95209.53
2023-04-14T20:31:24.284Z,95216.44
2023-04-14T20:33:51.898Z,95205.38
2023-04-14T20:36:19.374Z,95209.50
2023-04-14T20:38:48.236Z,95203.72
2023-04-14T20:41:15.711Z,95196.81
2023-04-14T20:43:43.511Z,95195.31
2023-04-14T20:46:11.161Z,95196.81
2023-04-14T20:48:38.685Z,95194.81
2023-04-14T20:51:06.399Z,95198.09
2023-04-14T20:53:35.022Z,95190.72
2023-04-14T20:56:04.311Z,95192.72
2023-04-14T20:58:31.793Z,95194.56
2023-04-14T21:00:59.316Z,95192.59
2023-04-14T21:03:27.813Z,95193.56
2023-04-14T21:05:55.793Z,95192.59
2023-04-14T21:08:23.291Z,95189.13
2023-04-14T21:11:16.353Z,95188.97
2023-04-14T21:15:26.292Z,95184.50
2023-04-14T21:16:28.524Z,95186.66
2023-04-14T21:18:56.012Z,95191.44
2023-04-14T21:21:23.528Z,95189.63
2023-04-14T21:23:51.205Z,95189.94
2023-04-14T21:26:18.761Z,95192.25
2023-04-14T21:28:47.605Z,95187.81
2023-04-14T21:31:15.685Z,95184.34
2023-04-14T21:33:43.194Z,95188.31
2023-04-14T21:36:10.847Z,95189.78
2023-04-14T21:38:39.086Z,95192.59
2023-04-14T21:41:07.758Z,95191.75
2023-04-14T21:43:36.046Z,95187.28
2023-04-14T21:46:05.394Z,95186.34
2023-04-14T21:48:32.927Z,95181.88
2023-04-14T21:51:00.623Z,95183.03
2023-04-14T21:53:28.188Z,95175.78
2023-04-14T21:56:09.358Z,95176.97
2023-04-14T21:58:38.058Z,95178.59
2023-04-14T22:01:09.460Z,95172.19
2023-04-14T22:03:37.861Z,95175.13
2023-04-14T22:06:06.175Z,95167.56
2023-04-14T22:08:33.699Z,95164.28
2023-04-14T22:11:01.381Z,95154.72
2023-04-14T22:13:28.885Z,95164.59
2023-04-14T22:15:56.561Z,95164.94
2023-04-14T22:18:25.827Z,95164.91
2023-04-14T22:20:53.317Z,95161.31
2023-04-14T22:23:20.902Z,95158.19
2023-04-14T22:25:48.418Z,95162.78
2023-04-14T22:28:15.889Z,95162.44
2023-04-14T22:30:43.957Z,95167.88
2023-04-14T22:33:11.456Z,95162.75
2023-04-14T22:35:40.611Z,95160.31
2023-04-14T22:38:08.182Z,95157.50
2023-04-14T22:40:35.945Z,95155.88
2023-04-14T22:43:08.533Z,95155.03
2023-04-14T22:45:37.005Z,95152.88
2023-04-14T22:48:05.395Z,95150.41
2023-04-14T22:50:33.705Z,95155.03
2023-04-14T22:53:02.812Z,95155.53
2023-04-14T22:55:30.654Z,95149.09
2023-04-14T22:57:58.145Z,95156.69
2023-04-14T23:00:26.646Z,95153.41
2023-04-14T23:02:55.620Z,95150.41
2023-04-14T23:05:23.325Z,95152.56
2023-04-14T23:07:51.086Z,95151.09
2023-04-14T23:10:20.232Z,95147.13
2023-04-14T23:12:47.789Z,95144.50
2023-04-14T23:15:15.287Z,95149.09
2023-04-14T23:17:42.830Z,95150.75
2023-04-14T23:20:10.919Z,95144.50
2023-04-14T23:22:38.526Z,95142.84
2023-04-14T23:25:07.181Z,95137.09
2023-04-14T23:27:36.316Z,95142.88
2023-04-14T23:30:05.339Z,95142.50
2023-04-14T23:32:33.725Z,95146.16
2023-04-14T23:35:01.614Z,95146.47
2023-04-14T23:37:29.083Z,95138.09
2023-04-14T23:39:57.344Z,95141.50
2023-04-14T23:42:24.812Z,95135.09
2023-04-14T23:44:53.626Z,95133.97
2023-04-14T23:47:21.558Z,95132.94
2023-04-14T23:49:49.044Z,95123.25
2023-04-14T23:52:16.509Z,95127.84
2023-04-14T23:54:43.969Z,95124.09
2023-04-14T23:57:11.434Z,95110.41
2023-04-14T23:59:38.920Z,95117.50
